This is the latest recevied weather packets stored in our database for station/object YO8SHU-10. If no packets are shown the sender has not sent any weather packets the latest 10 day(s).
| Time | Temp. | Humidity | Pressure | Rain* | Wind** | Luminosity | Snow |
|---|---|---|---|---|---|---|---|
| 1777914030 | 24.44° C | 29% | 1019.5 hPa | - | - | - | - |
| 1777912230 | 27.78° C | 25% | 1019.3 hPa | - | - | - | - |
| 1777910430 | 29.44° C | 23% | 1019.1 hPa | - | - | - | - |
| 1777908630 | 30.56° C | 22% | 1019.2 hPa | - | - | - | - |
| 1777906830 | 30.56° C | 21% | 1018.9 hPa | - | - | - | - |
| 1777905030 | 30.56° C | 22% | 1019.5 hPa | - | - | - | - |
| 1777903230 | 27.22° C | 24% | 1019.5 hPa | - | - | - | - |
| 1777901430 | 25.56° C | 27% | 1019.7 hPa | - | - | - | - |
| 1777899629 | 26.11° C | 27% | 1019.8 hPa | - | - | - | - |
| 1777897829 | 26.67° C | 28% | 1020 hPa | - | - | - | - |
| 1777896029 | 26.11° C | 28% | 1020 hPa | - | - | - | - |
| 1777894229 | 25.56° C | 32% | 1020.3 hPa | - | - | - | - |
| 1777892428 | 25.56° C | 32% | 1020.1 hPa | - | - | - | - |
| 1777890627 | 25° C | 36% | 1020.9 hPa | - | - | - | - |
| 1777888827 | 24.44° C | 40% | 1021.1 hPa | - | - | - | - |
| 1777887027 | 23.89° C | 44% | 1021.6 hPa | - | - | - | - |
| 1777885227 | 22.78° C | 44% | 1021.5 hPa | - | - | - | - |
| 1777883427 | 21.67° C | 51% | 1021.8 hPa | - | - | - | - |
| 1777881627 | 20.56° C | 58% | 1021.9 hPa | - | - | - | - |
| 1777879827 | 18.89° C | 63% | 1021.9 hPa | - | - | - | - |
| 1777878027 | 17.78° C | 69% | 1022.1 hPa | - | - | - | - |
| 1777876227 | 17.78° C | 73% | 1021.9 hPa | - | - | - | - |
| 1777874427 | 15.56° C | 82% | 1021.9 hPa | - | - | - | - |
| 1777872626 | 13.89° C | 81% | 1022.1 hPa | - | - | - | - |
| 1777870826 | 13.89° C | 73% | 1022.2 hPa | - | - | - | - |
* Rain since midnight (hover to see other rain measurements)
** Current wind speed in m/s (hover to see current wind gust speed)